createdAt,value
2019-04-28T00:00:43.401Z,18.00
2019-04-28T00:03:47.279Z,17.57
2019-04-28T00:06:51.534Z,15.53
2019-04-28T00:09:56.769Z,13.23
2019-04-28T00:13:01.044Z,11.63
2019-04-28T00:16:06.658Z,11.60
2019-04-28T00:19:11.025Z,11.27
2019-04-28T00:22:20.999Z,12.07
2019-04-28T00:25:28.151Z,11.23
2019-04-28T00:28:33.545Z,15.17
2019-04-28T00:31:37.412Z,12.53
2019-04-28T00:34:41.438Z,10.57
2019-04-28T00:37:45.313Z,11.90
2019-04-28T00:40:49.145Z,10.00
2019-04-28T00:43:52.979Z,10.83
2019-04-28T00:46:56.792Z,10.67
2019-04-28T00:50:02.121Z,11.07
2019-04-28T00:53:06.214Z,9.57
2019-04-28T00:56:11.774Z,10.37
2019-04-28T00:59:15.596Z,11.83
2019-04-28T01:02:31.347Z,11.50
2019-04-28T01:05:35.195Z,10.80
2019-04-28T01:08:39.016Z,10.67
2019-04-28T01:11:42.821Z,12.50
2019-04-28T01:14:46.653Z,9.73
2019-04-28T01:18:00.740Z,9.63
2019-04-28T01:21:04.901Z,12.37
2019-04-28T01:24:09.510Z,8.57
2019-04-28T01:27:35.884Z,11.93
2019-04-28T01:30:59.903Z,11.97
2019-04-28T01:34:22.821Z,10.93
2019-04-28T01:37:26.741Z,13.17
2019-04-28T01:40:30.643Z,14.83
2019-04-28T01:43:34.542Z,12.87
2019-04-28T01:46:39.871Z,13.23
2019-04-28T01:49:43.889Z,17.63
2019-04-28T01:52:49.523Z,14.27
2019-04-28T01:55:53.271Z,15.80
2019-04-28T01:58:57.090Z,14.57
2019-04-28T02:02:01.052Z,12.40
2019-04-28T02:05:06.401Z,12.23
2019-04-28T02:08:10.332Z,10.73
2019-04-28T02:11:14.188Z,15.33
2019-04-28T02:14:19.566Z,11.87
2019-04-28T02:17:23.594Z,15.40
2019-04-28T02:20:27.421Z,15.03
2019-04-28T02:23:32.339Z,13.90
2019-04-28T02:26:36.196Z,11.40
2019-04-28T02:29:41.745Z,13.87
2019-04-28T02:32:45.560Z,11.43
2019-04-28T02:35:51.139Z,9.57
2019-04-28T02:38:55.098Z,11.53
2019-04-28T02:42:01.346Z,15.70
2019-04-28T02:45:05.264Z,8.77
2019-04-28T02:48:13.332Z,8.10
2019-04-28T02:51:23.802Z,12.00
2019-04-28T02:54:30.359Z,12.57
2019-04-28T02:57:33.305Z,8.60
2019-04-28T03:00:37.223Z,9.23
2019-04-28T03:03:41.193Z,9.63
2019-04-28T03:06:45.252Z,11.00
2019-04-28T03:09:51.764Z,9.80
2019-04-28T03:12:54.812Z,7.23
2019-04-28T03:16:01.154Z,7.10
2019-04-28T03:19:04.521Z,10.00
2019-04-28T03:22:11.252Z,9.63
2019-04-28T03:25:27.422Z,9.37
2019-04-28T03:28:51.370Z,10.97
2019-04-28T03:32:22.789Z,9.17
2019-04-28T03:35:06.305Z,12.30
2019-04-28T03:38:10.714Z,12.50
2019-04-28T03:41:14.714Z,9.43
2019-04-28T03:44:20.839Z,13.77
2019-04-28T03:47:24.170Z,9.97
2019-04-28T03:50:28.055Z,13.83
2019-04-28T03:53:31.895Z,12.47
2019-04-28T03:56:35.717Z,12.17
2019-04-28T03:59:41.258Z,10.10
2019-04-28T04:02:45.202Z,10.17
2019-04-28T04:05:50.816Z,11.97
2019-04-28T04:08:54.594Z,8.90
2019-04-28T04:12:16.243Z,10.77
2019-04-28T04:15:55.041Z,10.17
2019-04-28T04:19:00.732Z,13.30
2019-04-28T04:22:04.732Z,13.60
2019-04-28T04:25:12.258Z,8.70
2019-04-28T04:28:14.401Z,12.43
2019-04-28T04:31:20.001Z,8.17
2019-04-28T04:34:23.934Z,13.00
2019-04-28T04:37:30.597Z,9.63
2019-04-28T04:40:33.336Z,9.80
2019-04-28T04:43:37.180Z,6.80
2019-04-28T04:46:41.561Z,7.47
2019-04-28T04:49:45.600Z,9.63
2019-04-28T04:52:50.248Z,10.73
2019-04-28T04:55:54.153Z,14.00
2019-04-28T04:59:02.243Z,10.23
2019-04-28T05:02:26.638Z,11.70
2019-04-28T05:05:27.003Z,9.23
2019-04-28T05:08:30.816Z,6.40
2019-04-28T05:11:34.733Z,9.53
2019-04-28T05:14:39.499Z,9.43
2019-04-28T05:17:43.633Z,11.83
2019-04-28T05:20:47.477Z,10.83
2019-04-28T05:24:17.404Z,9.10
2019-04-28T05:27:25.376Z,10.83
2019-04-28T05:30:27.084Z,8.03
2019-04-28T05:33:33.937Z,9.80
2019-04-28T05:36:40.978Z,7.43
2019-04-28T05:39:42.076Z,9.57
2019-04-28T05:43:01.404Z,9.67
2019-04-28T05:46:05.322Z,9.43
2019-04-28T05:49:15.249Z,8.87
2019-04-28T05:52:36.846Z,12.30
2019-04-28T05:56:00.080Z,10.97
2019-04-28T05:59:12.381Z,7.30
2019-04-28T06:02:22.040Z,9.50
2019-04-28T06:05:25.892Z,11.03
2019-04-28T06:08:35.918Z,12.57
2019-04-28T06:11:40.970Z,8.33
2019-04-28T06:14:44.811Z,10.97
2019-04-28T06:17:49.843Z,8.50
2019-04-28T06:20:53.744Z,11.13
2019-04-28T06:23:57.654Z,11.00
2019-04-28T06:27:01.496Z,11.87
2019-04-28T06:30:07.137Z,14.80
2019-04-28T06:33:11.073Z,11.90
2019-04-28T06:36:14.941Z,10.37
2019-04-28T06:39:18.818Z,9.60
2019-04-28T06:42:22.666Z,9.37
2019-04-28T06:45:26.569Z,11.87
2019-04-28T06:48:30.427Z,10.37
2019-04-28T06:51:34.349Z,11.97
2019-04-28T06:54:38.148Z,9.23
2019-04-28T06:57:41.998Z,18.90
2019-04-28T07:00:45.901Z,15.07
2019-04-28T07:03:49.885Z,13.57
2019-04-28T07:06:53.821Z,11.83
2019-04-28T07:09:57.659Z,10.07
2019-04-28T07:13:01.585Z,10.07
2019-04-28T07:16:05.562Z,11.70
2019-04-28T07:19:09.465Z,10.33
2019-04-28T07:22:21.539Z,12.30
2019-04-28T07:25:25.351Z,11.67
2019-04-28T07:28:29.247Z,12.00
2019-04-28T07:31:33.072Z,14.10
2019-04-28T07:34:36.916Z,8.50
2019-04-28T07:37:40.818Z,13.67
2019-04-28T07:40:44.761Z,10.47
2019-04-28T07:43:48.593Z,12.07
2019-04-28T07:46:52.616Z,10.67
2019-04-28T07:49:56.435Z,9.23
2019-04-28T07:53:06.834Z,8.40
2019-04-28T07:56:10.761Z,13.67
2019-04-28T07:59:14.656Z,10.47
2019-04-28T08:02:19.085Z,12.67
2019-04-28T08:05:23.054Z,11.40
2019-04-28T08:08:26.986Z,7.63
2019-04-28T08:11:30.858Z,8.87
2019-04-28T08:14:34.707Z,16.43
2019-04-28T08:17:38.524Z,12.63
2019-04-28T08:20:42.363Z,9.63
2019-04-28T08:23:47.566Z,8.23
2019-04-28T08:26:51.672Z,10.80
2019-04-28T08:29:58.542Z,11.93
2019-04-28T08:33:06.765Z,9.13
2019-04-28T08:36:10.707Z,9.33
2019-04-28T08:39:14.625Z,10.80
2019-04-28T08:42:18.538Z,13.93
2019-04-28T08:45:22.484Z,6.77
2019-04-28T08:48:26.480Z,10.23
2019-04-28T08:51:30.286Z,7.60
2019-04-28T08:54:34.261Z,13.47
2019-04-28T08:57:38.194Z,16.97
2019-04-28T09:00:42.077Z,12.93
2019-04-28T09:03:46.062Z,10.13
2019-04-28T09:06:49.959Z,9.23
2019-04-28T09:09:53.889Z,9.47
2019-04-28T09:12:57.956Z,8.60
2019-04-28T09:16:02.812Z,10.97
2019-04-28T09:19:07.137Z,8.67
2019-04-28T09:22:11.655Z,8.63
2019-04-28T09:25:16.003Z,10.70
2019-04-28T09:28:20.298Z,14.00
2019-04-28T09:31:24.532Z,9.93
2019-04-28T09:34:28.790Z,8.47
2019-04-28T09:37:33.136Z,10.23
2019-04-28T09:40:40.822Z,8.40
2019-04-28T09:43:59.053Z,13.63
2019-04-28T09:47:02.951Z,8.77
2019-04-28T09:50:07.047Z,9.83
2019-04-28T09:53:11.341Z,9.00
2019-04-28T09:56:15.930Z,13.60
2019-04-28T09:59:20.613Z,8.87
2019-04-28T10:02:25.294Z,9.43
2019-04-28T10:05:29.524Z,7.53
2019-04-28T10:08:36.405Z,10.33
2019-04-28T10:11:39.713Z,10.77
2019-04-28T10:14:43.620Z,10.20
2019-04-28T10:17:47.639Z,9.03
2019-04-28T10:20:51.672Z,7.60
2019-04-28T10:23:56.498Z,9.70
2019-04-28T10:27:00.416Z,6.80
2019-04-28T10:30:05.304Z,15.17
2019-04-28T10:33:09.219Z,9.43
2019-04-28T10:36:14.790Z,7.87
2019-04-28T10:39:47.125Z,8.83
2019-04-28T10:42:51.652Z,9.00
2019-04-28T10:45:55.572Z,9.70
2019-04-28T10:48:59.792Z,7.83
2019-04-28T10:52:03.650Z,7.97
2019-04-28T10:55:07.659Z,9.23
2019-04-28T10:58:11.773Z,11.03
2019-04-28T11:01:15.675Z,11.80
2019-04-28T11:04:37.238Z,8.37
2019-04-28T11:07:41.185Z,10.63
2019-04-28T11:10:45.107Z,12.70
2019-04-28T11:13:49.197Z,14.27
2019-04-28T11:16:53.042Z,15.13
2019-04-28T11:19:57.271Z,16.93
2019-04-28T11:23:01.310Z,14.33
2019-04-28T11:26:05.305Z,8.63
2019-04-28T11:29:10.181Z,9.57
2019-04-28T11:32:15.482Z,18.37
2019-04-28T11:35:27.066Z,9.60
2019-04-28T11:38:30.893Z,12.57
2019-04-28T11:41:35.008Z,10.47
2019-04-28T11:44:38.906Z,10.40
2019-04-28T11:47:42.813Z,17.00
2019-04-28T11:50:46.632Z,14.43
2019-04-28T11:53:50.476Z,8.97
2019-04-28T11:56:54.362Z,11.90
2019-04-28T11:59:58.283Z,12.70
2019-04-28T12:03:02.177Z,18.97
2019-04-28T12:06:06.411Z,14.90
2019-04-28T12:09:27.422Z,12.00
2019-04-28T12:12:44.880Z,11.30
2019-04-28T12:16:00.838Z,13.67
2019-04-28T12:19:15.553Z,9.40
2019-04-28T12:22:19.401Z,39.47
2019-04-28T12:25:23.239Z,85.60
2019-04-28T12:28:27.072Z,19.77
2019-04-28T12:31:30.969Z,20.63
2019-04-28T12:34:34.863Z,13.57
2019-04-28T12:37:38.795Z,11.10
2019-04-28T12:40:42.584Z,14.13
2019-04-28T12:43:46.405Z,14.13
2019-04-28T12:46:50.257Z,14.70
2019-04-28T12:49:58.759Z,17.87
2019-04-28T12:53:02.600Z,18.83
2019-04-28T12:56:06.564Z,12.60
2019-04-28T12:59:16.078Z,11.87
2019-04-28T13:02:35.439Z,14.87
2019-04-28T13:05:40.498Z,18.77
2019-04-28T13:08:44.449Z,17.60
2019-04-28T13:11:48.196Z,18.20
2019-04-28T13:14:51.998Z,13.87
2019-04-28T13:17:55.852Z,12.37
2019-04-28T13:20:59.665Z,12.87
2019-04-28T13:24:03.561Z,14.57
2019-04-28T13:27:10.096Z,16.60
2019-04-28T13:30:13.740Z,14.10
2019-04-28T13:33:17.583Z,13.23
2019-04-28T13:36:21.465Z,20.43
2019-04-28T13:39:36.835Z,16.30
2019-04-28T13:42:40.631Z,13.50
2019-04-28T13:45:44.442Z,25.00
2019-04-28T13:48:48.340Z,14.07
2019-04-28T13:51:52.179Z,15.43
2019-04-28T13:55:05.802Z,13.43
2019-04-28T13:58:09.661Z,16.77
2019-04-28T14:01:33.985Z,24.43
2019-04-28T14:04:46.635Z,17.47
2019-04-28T14:07:50.453Z,22.17
2019-04-28T14:10:54.488Z,18.40
2019-04-28T14:13:58.363Z,18.00
2019-04-28T14:17:02.212Z,19.43
2019-04-28T14:20:06.547Z,16.60
2019-04-28T14:23:10.444Z,16.80
2019-04-28T14:26:14.333Z,18.73
2019-04-28T14:29:18.232Z,21.60
2019-04-28T14:32:22.070Z,28.73
2019-04-28T14:35:25.924Z,20.23
2019-04-28T14:38:29.746Z,21.17
2019-04-28T14:41:33.569Z,17.47
2019-04-28T14:44:37.462Z,21.43
2019-04-28T14:47:41.310Z,24.80
2019-04-28T14:50:45.114Z,23.03
2019-04-28T14:53:48.961Z,15.93
2019-04-28T14:56:52.929Z,24.53
2019-04-28T14:59:58.182Z,16.53
2019-04-28T15:03:06.341Z,23.87
2019-04-28T15:06:19.753Z,14.23
2019-04-28T15:09:33.454Z,18.17
2019-04-28T15:12:37.231Z,17.30
2019-04-28T15:15:41.114Z,17.00
2019-04-28T15:18:45.036Z,17.53
2019-04-28T15:21:48.909Z,14.30
2019-04-28T15:24:52.727Z,17.00
2019-04-28T15:27:56.627Z,16.83
2019-04-28T15:31:00.575Z,23.30
2019-04-28T15:34:04.482Z,12.10
2019-04-28T15:37:10.160Z,15.27
2019-04-28T15:40:14.206Z,12.57
2019-04-28T15:43:18.099Z,16.70
2019-04-28T15:46:21.927Z,17.03
2019-04-28T15:49:25.772Z,12.47
2019-04-28T15:52:29.657Z,12.07
2019-04-28T15:55:40.141Z,14.33
2019-04-28T15:58:43.971Z,11.20
2019-04-28T16:01:47.856Z,10.67
2019-04-28T16:04:51.739Z,9.47
2019-04-28T16:07:55.525Z,13.80
2019-04-28T16:10:59.484Z,12.03
2019-04-28T16:14:03.277Z,10.33
2019-04-28T16:17:07.249Z,11.60
2019-04-28T16:20:11.321Z,10.57
2019-04-28T16:23:15.238Z,9.90
2019-04-28T16:26:19.141Z,10.53
2019-04-28T16:29:22.940Z,15.03
2019-04-28T16:32:26.784Z,15.23
2019-04-28T16:35:30.599Z,16.30
2019-04-28T16:38:34.433Z,17.00
2019-04-28T16:41:38.944Z,13.00
2019-04-28T16:44:44.774Z,10.33
2019-04-28T16:47:48.675Z,19.40
2019-04-28T16:50:52.474Z,12.63
2019-04-28T16:53:56.297Z,21.23
2019-04-28T16:57:22.040Z,11.33
2019-04-28T17:00:40.881Z,12.37
2019-04-28T17:03:44.721Z,13.83
2019-04-28T17:06:48.625Z,13.40
2019-04-28T17:09:52.513Z,15.27
2019-04-28T17:12:56.353Z,17.97
2019-04-28T17:16:00.171Z,12.83
2019-04-28T17:19:04.333Z,12.57
2019-04-28T17:22:08.295Z,16.20
2019-04-28T17:25:13.731Z,17.03
2019-04-28T17:28:17.569Z,14.47
2019-04-28T17:31:21.451Z,15.67
2019-04-28T17:34:25.291Z,13.23
2019-04-28T17:37:29.151Z,13.13
2019-04-28T17:40:33.362Z,11.20
2019-04-28T17:43:37.276Z,16.20
2019-04-28T17:46:41.364Z,13.93
2019-04-28T17:49:45.350Z,15.33
2019-04-28T17:52:49.193Z,14.87
2019-04-28T17:55:53.032Z,14.37
2019-04-28T17:58:56.910Z,18.73
2019-04-28T18:02:32.001Z,14.50
2019-04-28T18:05:43.307Z,16.03
2019-04-28T18:08:47.215Z,18.40
2019-04-28T18:11:51.219Z,17.77
2019-04-28T18:14:58.775Z,18.93
2019-04-28T18:18:27.407Z,17.13
2019-04-28T18:21:31.386Z,16.33
2019-04-28T18:24:35.780Z,15.50
2019-04-28T18:27:39.638Z,17.87
2019-04-28T18:30:50.523Z,17.40
2019-04-28T18:34:31.523Z,18.40
2019-04-28T18:38:03.476Z,18.00
2019-04-28T18:41:38.473Z,19.13
2019-04-28T18:44:42.348Z,18.00
2019-04-28T18:47:46.225Z,20.47
2019-04-28T18:50:50.007Z,21.43
2019-04-28T18:53:53.824Z,21.27
2019-04-28T18:56:57.661Z,20.17
2019-04-28T19:00:01.504Z,13.53
2019-04-28T19:03:05.306Z,15.00
2019-04-28T19:06:09.221Z,16.47
2019-04-28T19:09:24.320Z,18.07
2019-04-28T19:12:49.954Z,20.77
2019-04-28T19:16:17.934Z,19.77
2019-04-28T19:19:22.335Z,13.60
2019-04-28T19:22:26.229Z,14.10
2019-04-28T19:25:30.029Z,15.27
2019-04-28T19:28:33.961Z,19.00
2019-04-28T19:31:37.769Z,15.10
2019-04-28T19:34:41.697Z,15.27
2019-04-28T19:37:45.489Z,14.23
2019-04-28T19:40:49.325Z,11.30
2019-04-28T19:43:53.133Z,11.40
2019-04-28T19:46:57.031Z,12.07
2019-04-28T19:50:00.849Z,14.57
2019-04-28T19:53:04.811Z,17.83
2019-04-28T19:56:14.486Z,13.40
2019-04-28T19:59:25.227Z,14.93
2019-04-28T20:02:32.093Z,19.57
2019-04-28T20:05:35.940Z,17.93
2019-04-28T20:08:39.843Z,20.17
2019-04-28T20:11:43.739Z,17.63
2019-04-28T20:14:47.589Z,19.60
2019-04-28T20:17:51.386Z,17.57
2019-04-28T20:20:55.216Z,18.83
2019-04-28T20:23:59.029Z,15.50
2019-04-28T20:27:02.927Z,18.53
2019-04-28T20:30:07.207Z,19.53
2019-04-28T20:33:11.131Z,14.83
2019-04-28T20:36:20.690Z,20.63
2019-04-28T20:39:30.184Z,21.57
2019-04-28T20:42:54.750Z,20.53
2019-04-28T20:45:58.745Z,16.27
2019-04-28T20:49:02.559Z,17.43
2019-04-28T20:52:06.377Z,15.40
2019-04-28T20:55:10.540Z,14.83
2019-04-28T20:58:14.374Z,17.00
2019-04-28T21:01:18.264Z,16.27
2019-04-28T21:04:22.057Z,15.93
2019-04-28T21:07:25.886Z,18.30
2019-04-28T21:10:37.837Z,19.80
2019-04-28T21:13:35.318Z,19.03
2019-04-28T21:16:39.230Z,18.90
2019-04-28T21:19:43.135Z,27.77
2019-04-28T21:22:46.957Z,23.57
2019-04-28T21:25:50.787Z,21.27
2019-04-28T21:28:54.612Z,25.57
2019-04-28T21:31:58.443Z,26.50
2019-04-28T21:35:02.364Z,25.47
2019-04-28T21:38:06.180Z,28.20
2019-04-28T21:41:09.981Z,31.13
2019-04-28T21:44:32.868Z,29.63
2019-04-28T21:47:36.838Z,34.27
2019-04-28T21:50:40.752Z,30.93
2019-04-28T21:53:44.674Z,34.83
2019-04-28T21:56:48.581Z,32.23
2019-04-28T21:59:52.394Z,30.17
2019-04-28T22:02:56.310Z,34.10
2019-04-28T22:06:00.270Z,35.13
2019-04-28T22:09:05.780Z,33.77
2019-04-28T22:12:09.631Z,35.17
2019-04-28T22:15:13.621Z,30.43
2019-04-28T22:18:17.459Z,35.53
2019-04-28T22:21:21.314Z,33.53
2019-04-28T22:24:38.919Z,33.87
2019-04-28T22:27:42.812Z,31.47
2019-04-28T22:30:46.634Z,36.00
2019-04-28T22:33:50.459Z,31.67
2019-04-28T22:36:54.371Z,32.03
2019-04-28T22:39:58.221Z,40.87
2019-04-28T22:43:02.056Z,38.23
2019-04-28T22:46:06.020Z,36.23
2019-04-28T22:49:09.899Z,39.00
2019-04-28T22:52:13.715Z,39.47
2019-04-28T22:55:21.804Z,40.60
2019-04-28T22:58:44.633Z,44.93
2019-04-28T23:01:53.890Z,42.27
2019-04-28T23:05:08.615Z,48.53
2019-04-28T23:08:12.420Z,45.87
2019-04-28T23:11:16.339Z,53.27
2019-04-28T23:14:20.293Z,61.90
2019-04-28T23:17:24.465Z,61.70
2019-04-28T23:20:30.095Z,54.40
2019-04-28T23:23:33.905Z,57.33
2019-04-28T23:26:37.904Z,73.60
2019-04-28T23:29:41.889Z,68.07
2019-04-28T23:32:45.712Z,68.60
2019-04-28T23:35:49.557Z,71.20
2019-04-28T23:38:53.438Z,74.33
2019-04-28T23:42:05.089Z,70.47
2019-04-28T23:45:12.111Z,81.53
2019-04-28T23:48:14.635Z,74.77
2019-04-28T23:51:26.977Z,74.53
2019-04-28T23:54:30.803Z,77.57
2019-04-28T23:57:34.650Z,71.00
